| time (UTC) | temp F | wind direction | speed MPH | gust MPH | rain 1hr in | rain 24hr in | rain mn in | humidity % | barometer mb |
| 20260502210128 | 49 | 267 | 10.0 | 0.0 | 0.00 | 0.00 | 0.00 | 36 | 994.9 |
| 20260502204558 | 49 | 271 | 8.0 | 0.0 | 0.00 | 0.00 | 0.00 | 38 | 995.2 |
| 20260502203117 | 49 | 273 | 9.0 | 0.0 | 0.00 | 0.00 | 0.00 | 35 | 995.7 |
| 20260502201558 | 49 | 273 | 9.0 | 0.0 | 0.00 | 0.00 | 0.00 | 35 | 995.7 |
| 20260502200125 | 48 | 273 | 9.0 | 0.0 | 0.00 | 0.00 | 0.00 | 35 | 995.7 |
| 20260502194558 | 48 | 271 | 9.0 | 0.0 | 0.00 | 0.00 | 0.00 | 43 | 996.0 |
| 20260502193112 | 48 | 270 | 9.0 | 0.0 | 0.00 | 0.00 | 0.00 | 43 | 996.0 |
| 20260502191559 | 48 | 274 | 10.0 | 0.0 | 0.00 | 0.00 | 0.00 | 43 | 996.0 |
| 20260502190126 | 48 | 274 | 10.0 | 0.0 | 0.00 | 0.00 | 0.00 | 43 | 996.0 |
| 20260502184558 | 48 | 277 | 9.0 | 0.0 | 0.00 | 0.00 | 0.00 | 45 | 996.1 |
| 20260502183118 | 47 | 276 | 9.0 | 0.0 | 0.00 | 0.00 | 0.00 | 41 | 996.1 |
| 20260502181557 | 47 | 279 | 8.0 | 0.0 | 0.00 | 0.00 | 0.00 | 41 | 996.1 |
| 20260502180131 | 47 | 282 | 8.0 | 0.0 | 0.00 | 0.00 | 0.00 | 41 | 996.1 |
| 20260502170122 | 47 | 273 | 7.0 | 0.0 | 0.00 | 0.00 | 0.00 | 40 | 996.6 |
| 20260502163118 | 46 | 278 | 8.0 | 0.0 | 0.00 | 0.00 | 0.00 | 40 | 995.4 |
| 20260502161558 | 45 | 276 | 8.0 | 0.0 | 0.00 | 0.00 | 0.00 | 40 | 995.4 |
| 20260502160129 | 45 | 278 | 7.0 | 0.0 | 0.00 | 0.00 | 0.00 | 40 | 995.4 |
| 20260502151559 | 43 | 287 | 7.0 | 0.0 | 0.00 | 0.00 | 0.00 | 48 | 995.8 |
| 20260502150131 | 43 | 289 | 7.0 | 0.0 | 0.00 | 0.00 | 0.00 | 48 | 995.8 |
| 20260502130127 | 37 | 332 | 5.0 | 0.0 | 0.00 | 0.00 | 0.00 | 68 | 996.2 |
| 20260502123116 | 36 | 332 | 4.0 | 0.0 | 0.00 | 0.00 | 0.00 | 79 | 996.6 |
| 20260502121558 | 35 | 337 | 4.0 | 0.0 | 0.00 | 0.00 | 0.00 | 79 | 996.6 |
| 20260502120139 | 34 | 335 | 4.0 | 0.0 | 0.00 | 0.00 | 0.00 | 79 | 996.6 |
| 20260502114558 | 33 | 328 | 3.0 | 0.0 | 0.00 | 0.00 | 0.00 | 88 | 996.4 |
| 20260502113120 | 32 | 261 | 1.0 | 0.0 | 0.00 | 0.00 | 0.00 | 90 | 996.3 |
| 20260502111558 | 32 | 216 | 1.0 | 0.0 | 0.00 | 0.00 | 0.00 | 90 | 996.3 |
| 20260502110127 | 32 | 225 | 2.0 | 0.0 | 0.00 | 0.00 | 0.00 | 90 | 996.3 |
| 20260502104558 | 32 | 209 | 2.0 | 0.0 | 0.00 | 0.00 | 0.00 | 88 | 996.1 |
| 20260502103116 | 32 | 209 | 2.0 | 0.0 | 0.00 | 0.00 | 0.00 | 90 | 996.4 |
| 20260502101558 | 32 | 203 | 2.0 | 0.0 | 0.00 | 0.00 | 0.00 | 90 | 996.4 |
| 20260502100128 | 32 | 207 | 2.0 | 0.0 | 0.00 | 0.00 | 0.00 | 90 | 996.4 |
| 20260502090127 | 32 | 262 | 1.0 | 0.0 | 0.00 | 0.00 | 0.00 | 88 | 995.9 |
| 20260502070128 | 32 | 323 | 3.0 | 0.0 | 0.00 | 0.00 | 0.00 | 79 | 995.1 |
| 20260502064558 | 33 | 312 | 3.0 | 0.0 | 0.00 | 0.00 | 0.00 | 75 | 996.1 |
| 20260502063118 | 33 | 315 | 3.0 | 0.0 | 0.00 | 0.00 | 0.00 | 75 | 996.0 |
| 20260502061558 | 33 | 321 | 3.0 | 0.0 | 0.00 | 0.00 | 0.00 | 75 | 996.0 |
| 20260502060142 | 34 | 327 | 3.0 | 0.0 | 0.00 | 0.00 | 0.00 | 75 | 996.0 |
| 20260502054558 | 34 | 333 | 3.0 | 0.0 | 0.00 | 0.00 | 0.00 | 72 | 995.2 |
| 20260502053117 | 34 | 331 | 4.0 | 0.0 | 0.00 | 0.00 | 0.00 | 74 | 995.7 |
| 20260502051557 | 34 | 323 | 4.0 | 0.0 | 0.00 | 0.00 | 0.00 | 74 | 995.7 |
| 20260502050129 | 35 | 333 | 4.0 | 0.0 | 0.00 | 0.00 | 0.00 | 74 | 995.7 |
| 20260502044559 | 35 | 325 | 4.0 | 0.0 | 0.00 | 0.00 | 0.00 | 72 | 995.2 |
| 20260502043115 | 35 | 327 | 4.0 | 0.0 | 0.00 | 0.00 | 0.00 | 74 | 995.4 |
| 20260502041558 | 35 | 333 | 4.0 | 0.0 | 0.00 | 0.00 | 0.00 | 74 | 995.4 |
| 20260502040129 | 35 | 338 | 4.0 | 0.0 | 0.00 | 0.00 | 0.00 | 74 | 995.4 |
| 20260502034557 | 36 | 339 | 5.0 | 0.0 | 0.00 | 0.00 | 0.00 | 62 | 994.9 |
| 20260502033117 | 36 | 349 | 4.0 | 0.0 | 0.00 | 0.00 | 0.00 | 68 | 994.4 |
| 20260502031557 | 36 | 352 | 6.0 | 0.0 | 0.00 | 0.00 | 0.00 | 68 | 994.3 |
| 20260502030128 | 37 | 346 | 7.0 | 0.0 | 0.00 | 0.00 | 0.00 | 68 | 994.3 |
| 20260502024556 | 37 | 329 | 7.0 | 0.0 | 0.00 | 0.00 | 0.00 | 64 | 993.8 |
| 20260502023115 | 37 | 322 | 6.0 | 0.0 | 0.00 | 0.00 | 0.00 | 66 | 994.7 |
| 20260502021556 | 39 | 311 | 6.0 | 0.0 | 0.00 | 0.00 | 0.00 | 66 | 994.8 |
| 20260502020122 | 40 | 310 | 5.0 | 0.0 | 0.00 | 0.00 | 0.00 | 66 | 994.8 |
| 20260502014556 | 40 | 311 | 4.0 | 0.0 | 0.00 | 0.00 | 0.00 | 61 | 994.7 |
| 20260502013113 | 40 | 313 | 4.0 | 0.0 | 0.00 | 0.00 | 0.00 | 61 | 994.7 |
| 20260502011555 | 40 | 326 | 6.0 | 0.0 | 0.00 | 0.00 | 0.00 | 61 | 994.7 |
| 20260502010120 | 41 | 322 | 6.0 | 0.0 | 0.00 | 0.00 | 0.00 | 61 | 994.7 |
| 20260502004555 | 41 | 322 | 6.0 | 0.0 | 0.00 | 0.00 | 0.00 | 52 | 995.0 |
| 20260502003114 | 41 | 317 | 8.0 | 0.0 | 0.00 | 0.00 | 0.00 | 57 | 995.6 |
| 20260502001556 | 41 | 314 | 8.0 | 0.0 | 0.00 | 0.00 | 0.00 | 57 | 995.6 |
| 20260502000137 | 42 | 310 | 9.0 | 0.0 | 0.00 | 0.00 | 0.00 | 57 | 995.6 |
| 20260501234558 | 42 | 298 | 8.0 | 0.0 | 0.00 | 0.00 | 0.00 | 49 | 994.1 |
| 20260501233111 | 43 | 305 | 10.0 | 0.0 | 0.00 | 0.00 | 0.00 | 50 | 995.0 |
| 20260501231557 | 44 | 299 | 9.0 | 0.0 | 0.00 | 0.00 | 0.00 | 50 | 995.0 |
| 20260501230120 | 44 | 304 | 8.0 | 0.0 | 0.00 | 0.00 | 0.00 | 50 | 995.0 |
| 20260501224557 | 45 | 305 | 8.0 | 0.0 | 0.00 | 0.00 | 0.00 | 49 | 993.8 |
| 20260501223115 | 45 | 304 | 8.0 | 0.0 | 0.00 | 0.00 | 0.00 | 51 | 994.7 |
| 20260501221557 | 45 | 284 | 6.0 | 0.0 | 0.00 | 0.00 | 0.00 | 51 | 994.7 |
| 20260501220126 | 45 | 289 | 6.0 | 0.0 | 0.00 | 0.00 | 0.00 | 51 | 994.7 |
| 20260501214557 | 45 | 297 | 7.0 | 0.0 | 0.00 | 0.00 | 0.00 | 53 | 994.0 |
| 20260501213111 | 45 | 294 | 7.0 | 0.0 | 0.00 | 0.00 | 0.00 | 51 | 994.4 |
| 20260501211557 | 45 | 300 | 8.0 | 0.0 | 0.00 | 0.00 | 0.00 | 51 | 994.4 |